Time;durP1;ratioP1;P1;durP2;ratioP2;P2;SDS_P1;SDS_P2;PMS_P1;PMS_P2;Temp;Humidity;BMP_temperature;BMP_pressure;BME280_temperature;BME280_humidity;BME280_pressure;Samples;Min_cycle;Max_cycle;Signal;HPM_P1;HPM_P2
2022/08/16 06:36:55;;;;;;;8.43;7.63;;;27.40;99.90;;;;;;2600261;54;19954;31
2022/08/16 06:39:36;;;;;;;12.70;8.75;;;27.60;99.90;;;;;;2600274;54;20866;31
2022/08/16 06:42:39;;;;;;;8.85;7.00;;;27.90;99.90;;;;;;2602120;54;20046;31
2022/08/16 06:46:04;;;;;;;9.35;7.75;;;28.00;99.90;;;;;;2601938;54;20918;31
2022/08/16 06:48:44;;;;;;;8.80;7.90;;;28.20;99.90;;;;;;2602015;54;20034;31
2022/08/16 06:51:25;;;;;;;8.03;6.90;;;28.30;99.90;;;;;;2602866;54;20054;31
2022/08/16 06:54:21;;;;;;;9.30;7.40;;;28.50;99.90;;;;;;2702310;39;21011;31
2022/08/16 06:57:00;;;;;;;11.00;8.35;;;28.60;99.90;;;;;;2622442;46;20798;31
2022/08/16 06:59:34;;;;;;;8.80;7.93;;;28.70;99.90;;;;;;2602908;54;20759;31
2022/08/16 07:02:31;;;;;;;17.52;8.27;;;28.70;99.90;;;;;;2603571;54;20034;31
2022/08/16 07:05:08;;;;;;;8.32;7.22;;;28.80;99.90;;;;;;2603674;54;20029;31
2022/08/16 07:08:04;;;;;;;9.55;7.78;;;29.00;99.90;;;;;;2603479;54;20581;31
2022/08/16 07:10:43;;;;;;;10.50;7.97;;;29.10;99.90;;;;;;2603745;54;20917;31
2022/08/16 07:13:20;;;;;;;9.82;7.70;;;29.20;99.90;;;;;;2603588;54;20085;31
2022/08/16 07:16:16;;;;;;;8.45;7.55;;;29.30;99.90;;;;;;2603600;54;20037;31
2022/08/16 07:18:54;;;;;;;9.65;7.13;;;29.40;99.90;;;;;;2603437;54;20042;31
2022/08/16 07:21:39;;;;;;;10.45;6.50;;;29.50;99.90;;;;;;2603520;54;20026;31
2022/08/16 07:24:34;;;;;;;9.85;6.60;;;29.60;99.90;;;;;;2603446;54;20057;31
2022/08/16 07:27:23;;;;;;;7.75;6.60;;;29.60;99.90;;;;;;2603554;54;20108;31
2022/08/16 07:29:59;;;;;;;8.85;7.00;;;29.70;99.90;;;;;;2603736;54;20089;31
2022/08/16 07:32:34;;;;;;;7.70;6.93;;;29.70;99.90;;;;;;2621414;46;20053;31
2022/08/16 07:35:09;;;;;;;7.50;6.80;;;29.80;99.90;;;;;;2702348;39;21011;31
2022/08/16 07:37:48;;;;;;;11.50;6.73;;;29.90;99.90;;;;;;2622082;46;20030;31
2022/08/16 07:40:38;;;;;;;8.40;6.70;;;29.90;99.90;;;;;;2603705;54;20238;31
2022/08/16 07:43:36;;;;;;;6.75;5.93;;;30.00;99.90;;;;;;2622019;46;20030;31
2022/08/16 07:46:16;;;;;;;8.38;6.28;;;30.20;99.90;;;;;;2603158;54;20037;31
2022/08/16 07:49:17;;;;;;;8.25;7.45;;;30.20;99.90;;;;;;2603400;54;20065;31
2022/08/16 07:51:53;;;;;;;7.68;6.45;;;30.20;99.90;;;;;;2603206;54;20752;31
2022/08/16 07:54:32;;;;;;;7.35;6.57;;;30.30;99.90;;;;;;2702269;39;22221;31
2022/08/16 07:57:15;;;;;;;10.57;6.90;;;30.50;99.90;;;;;;2621735;46;20026;31
2022/08/16 07:59:59;;;;;;;7.50;6.80;;;30.70;99.90;;;;;;2603449;54;20029;31
2022/08/16 08:02:37;;;;;;;7.82;6.80;;;31.00;99.90;;;;;;2603447;54;20885;31
2022/08/16 08:05:28;;;;;;;6.95;6.35;;;31.10;99.90;;;;;;2621948;46;20026;31
2022/08/16 08:08:12;;;;;;;8.60;6.50;;;31.20;99.90;;;;;;2603651;54;20042;31
2022/08/16 08:11:09;;;;;;;6.93;6.22;;;31.30;99.90;;;;;;2603585;54;20031;31
2022/08/16 08:13:46;;;;;;;7.23;5.87;;;31.30;99.90;;;;;;2603206;54;20042;31
2022/08/16 08:16:25;;;;;;;9.03;6.33;;;31.40;99.90;;;;;;2603564;54;20026;31
2022/08/16 08:19:09;;;;;;;7.30;6.20;;;31.50;99.90;;;;;;2603355;54;20022;31
2022/08/16 08:21:46;;;;;;;8.18;6.60;;;31.60;99.90;;;;;;2603491;54;20027;31
2022/08/16 08:24:56;;;;;;;7.07;6.30;;;31.60;99.90;;;;;;2720540;39;21042;31
2022/08/16 08:27:38;;;;;;;9.73;6.23;;;31.80;99.90;;;;;;2622001;46;20026;31
2022/08/16 08:30:20;;;;;;;8.45;5.70;;;31.90;99.90;;;;;;2603304;54;20033;31
2022/08/16 08:33:18;;;;;;;6.65;6.05;;;32.00;99.90;;;;;;2622107;47;20855;31
2022/08/16 08:35:54;;;;;;;8.52;6.28;;;32.00;99.90;;;;;;2603461;54;20034;31
2022/08/16 08:38:30;;;;;;;6.72;6.03;;;32.10;99.90;;;;;;2603283;54;20053;31
2022/08/16 08:41:22;;;;;;;7.05;6.22;;;32.20;99.90;;;;;;2621511;47;20023;31
2022/08/16 08:44:03;;;;;;;7.90;6.30;;;32.30;99.90;;;;;;2603345;54;20089;31
2022/08/16 08:46:58;;;;;;;8.63;6.40;;;32.30;99.90;;;;;;2603417;54;20057;31
2022/08/16 08:49:39;;;;;;;6.63;5.70;;;32.30;99.90;;;;;;2603979;54;20154;31
2022/08/16 08:52:33;;;;;;;7.90;6.00;;;32.30;99.90;;;;;;2604154;54;20022;31
2022/08/16 08:55:20;;;;;;;7.22;5.28;;;32.30;99.90;;;;;;2603975;54;20023;31
2022/08/16 08:57:53;;;;;;;9.68;5.70;;;32.40;99.90;;;;;;2603786;54;20035;31
2022/08/16 09:00:37;;;;;;;6.25;5.63;;;32.50;99.90;;;;;;2604256;54;20784;31
2022/08/16 09:03:26;;;;;;;9.60;6.50;;;32.60;99.90;;;;;;2604005;54;20023;31
2022/08/16 09:06:04;;;;;;;11.00;6.20;;;32.70;99.90;;;;;;2604130;54;20037;31
2022/08/16 09:08:43;;;;;;;8.70;6.50;;;32.80;99.90;;;;;;2603921;54;20049;31
2022/08/16 09:11:22;;;;;;;7.05;6.43;;;32.90;99.90;;;;;;2603912;54;20022;31
2022/08/16 09:14:15;;;;;;;6.57;5.97;;;33.00;99.90;;;;;;2622113;46;20026;31
2022/08/16 09:16:59;;;;;;;6.00;5.50;;;33.10;99.90;;;;;;2622630;46;20034;31
2022/08/16 09:19:50;;;;;;;7.68;6.45;;;33.30;99.90;;;;;;2622339;46;20026;31
2022/08/16 09:22:31;;;;;;;7.00;6.30;;;33.50;99.90;;;;;;2604036;54;20057;31
2022/08/16 09:25:09;;;;;;;8.65;6.40;;;33.40;99.90;;;;;;2603832;54;20093;31
2022/08/16 09:27:48;;;;;;;7.63;6.20;;;33.40;99.90;;;;;;2604026;54;20048;31
2022/08/16 09:30:43;;;;;;;6.35;5.75;;;33.40;99.90;;;;;;2603991;54;20253;31
2022/08/16 09:33:20;;;;;;;8.27;6.57;;;33.50;99.90;;;;;;2604074;54;20042;31
2022/08/16 09:35:58;;;;;;;7.95;6.40;;;33.60;99.90;;;;;;2603974;54;20289;31
2022/08/16 09:38:37;;;;;;;8.83;7.10;;;33.70;99.90;;;;;;2603978;54;20048;31
2022/08/16 09:41:14;;;;;;;6.67;6.07;;;33.70;99.90;;;;;;2603782;54;20137;31
2022/08/16 09:43:49;;;;;;;10.35;6.55;;;33.70;99.90;;;;;;2622399;46;20872;31
2022/08/16 09:46:44;;;;;;;8.27;6.40;;;33.70;99.90;;;;;;2603863;54;20903;31
2022/08/16 09:49:23;;;;;;;7.85;6.63;;;33.70;99.90;;;;;;2622188;46;20031;31
2022/08/16 09:52:09;;;;;;;7.13;6.53;;;33.70;99.90;;;;;;2603884;54;20030;31
2022/08/16 09:54:47;;;;;;;7.40;6.50;;;33.70;99.90;;;;;;2604004;54;20050;31
2022/08/16 09:57:23;;;;;;;7.90;6.60;;;33.90;99.90;;;;;;2622077;46;20906;31
2022/08/16 10:00:10;;;;;;;10.30;6.47;;;33.80;99.90;;;;;;2621584;46;21800;31
2022/08/16 10:03:04;;;;;;;7.40;6.68;;;33.80;99.90;;;;;;2603987;54;20088;31
2022/08/16 10:05:43;;;;;;;8.95;6.05;;;34.00;99.90;;;;;;2603788;54;20065;31
2022/08/16 10:08:19;;;;;;;6.97;6.35;;;34.00;99.90;;;;;;2603801;54;20038;31
2022/08/16 10:13:55;;;;;;;7.97;5.93;;;34.00;99.90;;;;;;2603939;54;20030;31
2022/08/16 10:16:32;;;;;;;6.95;6.20;;;33.90;99.90;;;;;;2603952;54;20030;31
2022/08/16 10:19:15;;;;;;;7.53;6.25;;;33.90;99.90;;;;;;2603739;54;20023;31
2022/08/16 10:21:53;;;;;;;6.97;6.22;;;34.00;99.90;;;;;;2622125;46;20037;31
2022/08/16 10:24:30;;;;;;;6.67;6.07;;;34.00;99.90;;;;;;2603760;54;20081;31
2022/08/16 10:27:16;;;;;;;7.85;7.05;;;34.00;99.90;;;;;;2603734;54;20034;31
2022/08/16 10:30:15;;;;;;;6.45;5.85;;;34.00;99.90;;;;;;2603562;54;20850;31
2022/08/16 10:33:00;;;;;;;8.18;6.47;;;33.90;99.90;;;;;;2622054;46;20093;31
2022/08/16 10:35:38;;;;;;;7.93;5.85;;;34.00;99.90;;;;;;2603655;54;20031;31
2022/08/16 10:38:20;;;;;;;6.13;5.60;;;34.00;99.90;;;;;;2603715;54;20030;31
2022/08/16 10:41:01;;;;;;;6.50;5.90;;;34.00;99.90;;;;;;2603633;54;20033;31
2022/08/16 10:43:39;;;;;;;7.00;6.30;;;34.00;99.90;;;;;;2603855;54;20026;31
2022/08/16 10:46:15;;;;;;;6.70;6.00;;;34.00;99.50;;;;;;2621797;46;20814;31
2022/08/16 10:49:10;;;;;;;;;;;34.00;99.90;;;;;;2603780;54;20034;31
2022/08/16 10:51:45;;;;;;;6.17;5.57;;;34.00;99.40;;;;;;2622357;46;19935;31
2022/08/16 10:54:41;;;;;;;8.57;5.82;;;34.00;99.30;;;;;;2603528;54;20022;31
2022/08/16 10:57:32;;;;;;;7.10;6.00;;;34.00;99.40;;;;;;2603841;54;20038;31
2022/08/16 11:00:13;;;;;;;9.10;5.95;;;34.10;99.90;;;;;;2603597;54;20030;31
2022/08/16 11:02:58;;;;;;;6.65;5.95;;;34.00;99.70;;;;;;2603858;54;20908;31
2022/08/16 11:05:55;;;;;;;6.68;5.65;;;34.00;99.10;;;;;;2603521;54;20037;31
2022/08/16 11:08:32;;;;;;;6.73;6.03;;;34.00;99.90;;;;;;2603577;54;20022;31
2022/08/16 11:11:10;;;;;;;6.73;6.10;;;33.90;99.90;;;;;;2603649;54;20037;31
2022/08/16 11:13:53;;;;;;;7.28;5.90;;;34.00;99.90;;;;;;2603605;54;20030;31
2022/08/16 11:16:42;;;;;;;5.97;5.47;;;34.00;99.00;;;;;;2622029;46;20030;31
2022/08/16 11:19:40;;;;;;;6.80;5.60;;;34.00;99.50;;;;;;2603646;54;20023;31
2022/08/16 11:22:36;;;;;;;6.55;5.32;;;34.00;99.30;;;;;;2603554;54;20870;31
2022/08/16 11:25:23;;;;;;;6.10;5.50;;;34.00;99.30;;;;;;2622002;46;20030;31
2022/08/16 11:28:18;;;;;;;7.43;5.60;;;34.00;98.80;;;;;;2603653;54;20937;31
2022/08/16 11:31:12;;;;;;;5.85;5.13;;;34.00;98.90;;;;;;2603718;54;20860;31
2022/08/16 11:33:52;;;;;;;6.22;5.18;;;33.90;97.40;;;;;;2603244;54;20027;31
2022/08/16 11:36:29;;;;;;;5.72;5.22;;;33.70;97.70;;;;;;2603452;54;20076;31
2022/08/16 11:39:05;;;;;;;6.00;5.43;;;33.70;96.70;;;;;;2603412;54;20057;31
2022/08/16 11:41:44;;;;;;;5.72;5.18;;;33.70;96.80;;;;;;2603573;54;20250;31
2022/08/16 11:44:24;;;;;;;7.00;4.78;;;33.60;97.60;;;;;;2603532;54;20813;31
2022/08/16 11:47:20;;;;;;;9.63;5.10;;;33.60;99.30;;;;;;2603607;54;20030;31
2022/08/16 11:49:59;;;;;;;6.32;4.53;;;33.50;98.30;;;;;;2603693;54;20037;31
2022/08/16 11:52:33;;;;;;;5.97;5.28;;;33.50;96.90;;;;;;2603483;54;20105;31
2022/08/16 11:55:12;;;;;;;7.78;5.43;;;33.50;97.30;;;;;;2603657;54;20907;31
2022/08/16 11:57:48;;;;;;;6.30;5.00;;;33.60;98.90;;;;;;2603512;54;20081;31
2022/08/16 12:00:28;;;;;;;5.35;4.50;;;33.50;98.10;;;;;;2603348;54;20716;31
2022/08/16 12:03:24;;;;;;;6.75;5.30;;;33.50;98.20;;;;;;2621899;46;20026;31
2022/08/16 12:06:13;;;;;;;6.77;4.80;;;33.40;99.20;;;;;;2701746;39;21373;31
2022/08/16 12:09:03;;;;;;;5.88;5.22;;;33.40;98.80;;;;;;2603339;54;20267;31
2022/08/16 12:11:39;;;;;;;6.82;5.20;;;33.30;97.50;;;;;;2603550;54;20038;31
2022/08/16 12:14:16;;;;;;;5.75;4.68;;;33.30;96.60;;;;;;2603320;54;21024;31
2022/08/16 12:16:54;;;;;;;6.00;4.90;;;33.30;96.50;;;;;;2603298;54;20924;31
2022/08/16 12:19:27;;;;;;;6.13;4.90;;;33.20;96.00;;;;;;2702184;39;21239;31
2022/08/16 12:22:12;;;;;;;5.50;5.00;;;33.20;96.70;;;;;;2602554;54;20907;31
2022/08/16 12:24:54;;;;;;;6.00;4.87;;;33.10;95.60;;;;;;2603237;54;20027;31
2022/08/16 12:27:30;;;;;;;6.50;5.33;;;33.00;97.00;;;;;;2603438;54;20038;31
2022/08/16 12:30:05;;;;;;;5.85;4.80;;;32.90;97.40;;;;;;2616475;46;20060;31
2022/08/16 12:32:56;;;;;;;7.67;5.70;;;32.90;98.50;;;;;;2702022;39;21054;31
2022/08/16 12:35:31;;;;;;;7.82;5.13;;;32.80;96.10;;;;;;2603303;54;20141;31
2022/08/16 12:38:10;;;;;;;6.13;5.35;;;32.70;97.20;;;;;;2602996;54;20026;31
2022/08/16 12:41:06;;;;;;;6.28;5.68;;;32.70;97.70;;;;;;2603277;54;20855;31
2022/08/16 12:43:41;;;;;;;5.63;5.03;;;32.80;98.80;;;;;;2621764;47;20737;31
2022/08/16 12:46:17;;;;;;;6.45;5.50;;;32.80;98.50;;;;;;2621930;47;19951;31
2022/08/16 12:49:00;;;;;;;7.10;5.10;;;32.90;97.70;;;;;;2603505;54;20038;31
2022/08/16 12:51:39;;;;;;;6.25;5.38;;;32.90;98.20;;;;;;2603254;54;20090;31
2022/08/16 12:54:38;;;;;;;4.82;4.40;;;32.80;97.40;;;;;;2603228;54;20030;31
2022/08/16 12:57:13;;;;;;;8.60;5.20;;;32.80;98.60;;;;;;2603190;54;20093;31
2022/08/16 12:59:51;;;;;;;7.88;5.53;;;32.80;97.60;;;;;;2603068;54;20030;31
2022/08/16 13:02:29;;;;;;;5.90;5.15;;;32.70;96.20;;;;;;2621502;47;20038;31
2022/08/16 13:05:15;;;;;;;5.00;4.50;;;32.70;95.70;;;;;;2603085;54;20926;31
2022/08/16 13:07:50;;;;;;;4.97;4.47;;;32.70;96.00;;;;;;2621657;47;20053;31
2022/08/16 13:10:32;;;;;;;6.18;5.10;;;32.70;96.70;;;;;;2621621;47;20253;31
2022/08/16 13:13:13;;;;;;;6.18;4.97;;;32.60;96.40;;;;;;2603257;54;20031;31
2022/08/16 13:15:49;;;;;;;7.07;5.07;;;32.50;96.80;;;;;;2603108;54;20033;31
2022/08/16 13:18:33;;;;;;;6.10;5.50;;;32.50;97.40;;;;;;2603224;54;20096;31
2022/08/16 13:21:09;;;;;;;6.00;5.40;;;32.50;97.70;;;;;;2603122;54;20026;31
2022/08/16 13:23:44;;;;;;;5.53;5.03;;;32.50;98.30;;;;;;2603095;54;20867;31
2022/08/16 13:26:23;;;;;;;5.13;4.63;;;32.50;96.50;;;;;;2602913;54;20038;31
2022/08/16 13:28:59;;;;;;;5.70;5.13;;;32.40;96.90;;;;;;2603072;54;20093;31
2022/08/16 13:31:35;;;;;;;6.07;4.93;;;32.40;96.40;;;;;;2603150;54;20034;31
2022/08/16 13:34:11;;;;;;;5.50;5.10;;;32.40;96.60;;;;;;2603328;54;20030;31
2022/08/16 13:36:51;;;;;;;5.43;4.85;;;32.40;96.40;;;;;;2604094;54;20027;31
2022/08/16 13:39:30;;;;;;;6.15;5.05;;;32.40;97.50;;;;;;2603820;54;20033;31
2022/08/16 13:42:11;;;;;;;5.85;5.35;;;32.50;97.50;;;;;;2604133;54;20030;31
2022/08/16 13:44:45;;;;;;;5.53;4.93;;;32.50;97.80;;;;;;2603876;54;20030;31
2022/08/16 13:47:31;;;;;;;5.60;4.88;;;32.50;97.40;;;;;;2603915;54;20026;31
2022/08/16 13:50:08;;;;;;;7.53;5.00;;;32.40;97.70;;;;;;2603624;54;20033;31
2022/08/16 13:52:44;;;;;;;7.70;4.47;;;32.40;97.00;;;;;;2622309;46;20104;31
2022/08/16 13:55:19;;;;;;;5.68;5.10;;;32.40;96.90;;;;;;2603757;54;20246;31
2022/08/16 13:57:55;;;;;;;;;;;32.40;96.80;;;;;;2604170;54;20027;31
2022/08/16 14:00:52;;;;;;;9.23;4.72;;;32.40;96.50;;;;;;2603962;54;20759;31
2022/08/16 14:03:29;;;;;;;5.82;5.00;;;32.40;97.80;;;;;;2603553;54;20030;31
2022/08/16 14:06:09;;;;;;;8.48;5.45;;;32.30;97.50;;;;;;2603897;54;20030;31
2022/08/16 14:08:44;;;;;;;5.93;4.90;;;32.30;97.40;;;;;;2603865;54;20026;31
2022/08/16 14:11:38;;;;;;;4.78;4.25;;;32.30;97.50;;;;;;2603816;54;20131;31
2022/08/16 14:14:16;;;;;;;7.57;4.57;;;32.30;97.20;;;;;;2603731;54;20094;31
2022/08/16 14:16:50;;;;;;;6.40;4.75;;;32.20;95.70;;;;;;2622612;46;20048;31
2022/08/16 14:19:25;;;;;;;6.10;4.30;;;32.20;95.40;;;;;;2603670;54;20038;31
2022/08/16 14:22:04;;;;;;;5.75;5.15;;;32.30;96.00;;;;;;2603641;54;20038;31
2022/08/16 14:24:58;;;;;;;4.70;4.17;;;32.20;96.50;;;;;;2603745;54;20936;31
2022/08/16 14:27:32;;;;;;;7.45;4.72;;;32.20;97.20;;;;;;2603680;54;20981;31
2022/08/16 14:30:17;;;;;;;6.50;4.50;;;32.20;97.40;;;;;;2603828;54;20915;31
2022/08/16 14:32:52;;;;;;;5.43;4.47;;;32.10;97.50;;;;;;2603920;54;20035;31
2022/08/16 14:35:30;;;;;;;7.50;5.07;;;32.10;97.10;;;;;;2603732;54;20034;31
2022/08/16 14:38:23;;;;;;;5.55;4.20;;;32.10;96.50;;;;;;2603891;54;20850;31
2022/08/16 14:41:02;;;;;;;5.60;5.10;;;32.10;96.40;;;;;;2603853;54;19935;31
2022/08/16 14:43:40;;;;;;;4.53;4.05;;;32.00;96.80;;;;;;2622283;46;20898;31
2022/08/16 14:46:17;;;;;;;4.33;3.93;;;32.00;97.50;;;;;;2621799;46;20767;31
2022/08/16 14:48:54;;;;;;;5.20;4.30;;;32.00;97.40;;;;;;2603927;54;20031;31
2022/08/16 14:51:32;;;;;;;6.40;4.97;;;32.00;97.20;;;;;;2603925;54;20018;31
2022/08/16 14:54:06;;;;;;;7.38;4.63;;;32.00;96.60;;;;;;2622274;46;20026;31
2022/08/16 14:56:45;;;;;;;6.85;4.40;;;32.00;97.20;;;;;;2603566;54;20093;31
2022/08/16 14:59:28;;;;;;;5.10;4.22;;;31.90;96.40;;;;;;2603577;54;20022;31
2022/08/16 15:02:05;;;;;;;5.40;4.05;;;31.90;96.50;;;;;;2603623;54;20232;31
2022/08/16 15:04:43;;;;;;;7.90;4.97;;;31.80;96.00;;;;;;2603856;54;20168;31
2022/08/16 15:07:23;;;;;;;6.80;4.60;;;31.70;96.30;;;;;;2621760;46;20731;31
2022/08/16 15:10:02;;;;;;;7.47;4.90;;;31.70;97.00;;;;;;2603637;54;20887;31
2022/08/16 15:12:38;;;;;;;4.82;4.35;;;31.70;96.80;;;;;;2603269;54;20167;31
2022/08/16 15:15:20;;;;;;;6.75;4.30;;;31.60;96.20;;;;;;2603675;54;20027;31
2022/08/16 15:17:57;;;;;;;8.00;4.15;;;31.60;96.50;;;;;;2603496;54;20037;31
2022/08/16 15:20:35;;;;;;;6.13;4.53;;;31.50;96.30;;;;;;2603635;54;20036;31
2022/08/16 15:23:15;;;;;;;4.93;4.50;;;31.50;96.50;;;;;;2621783;46;20050;31
2022/08/16 15:25:51;;;;;;;9.73;4.72;;;31.50;96.40;;;;;;2622323;46;20042;31
2022/08/16 15:28:37;;;;;;;5.60;4.55;;;31.50;96.30;;;;;;2603643;54;20053;31
2022/08/16 15:31:14;;;;;;;7.65;4.63;;;31.40;96.70;;;;;;2603788;54;20864;31
2022/08/16 15:33:52;;;;;;;4.95;4.45;;;31.40;96.70;;;;;;2603528;54;20038;31
2022/08/16 15:36:31;;;;;;;6.10;5.35;;;31.40;97.20;;;;;;2603662;54;20030;31
2022/08/16 15:39:08;;;;;;;5.07;4.57;;;31.40;96.90;;;;;;2603616;54;20106;31
2022/08/16 15:42:06;;;;;;;4.90;4.35;;;31.40;97.10;;;;;;2603451;54;20818;31
2022/08/16 15:44:45;;;;;;;5.85;4.30;;;31.30;96.40;;;;;;2603318;54;20034;31
2022/08/16 15:47:32;;;;;;;5.93;4.43;;;31.20;96.40;;;;;;2603560;54;20033;31
2022/08/16 15:50:12;;;;;;;5.00;4.50;;;31.20;96.40;;;;;;2603513;54;20109;31
2022/08/16 15:52:46;;;;;;;6.28;4.60;;;31.10;96.90;;;;;;2603654;54;20050;31
2022/08/16 15:55:20;;;;;;;4.85;3.95;;;31.10;96.60;;;;;;2603632;54;20030;31
2022/08/16 15:58:08;;;;;;;5.30;4.30;;;31.10;96.50;;;;;;2603228;54;20057;31
2022/08/16 16:01:02;;;;;;;6.43;4.75;;;31.10;96.60;;;;;;2603490;54;20034;31
2022/08/16 16:03:39;;;;;;;4.20;3.88;;;31.10;96.60;;;;;;2603626;54;20027;31
2022/08/16 16:06:19;;;;;;;4.97;4.47;;;31.00;96.40;;;;;;2603268;54;20046;31
2022/08/16 16:09:05;;;;;;;5.93;4.85;;;31.00;96.80;;;;;;2603356;54;20034;31
2022/08/16 16:11:40;;;;;;;4.75;3.60;;;30.90;97.00;;;;;;2603389;54;21879;31
2022/08/16 16:14:15;;;;;;;;;;;30.80;97.10;;;;;;2603542;54;20037;31
2022/08/16 16:16:53;;;;;;;5.20;4.10;;;30.80;97.00;;;;;;2603408;54;20745;31
2022/08/16 16:19:28;;;;;;;4.57;3.70;;;30.80;97.00;;;;;;2603313;54;20763;31
2022/08/16 16:22:07;;;;;;;5.63;4.05;;;30.80;97.40;;;;;;2603269;54;20034;31
2022/08/16 16:24:43;;;;;;;5.05;4.55;;;30.80;97.70;;;;;;2702115;39;21035;31
2022/08/16 16:27:17;;;;;;;7.25;4.78;;;30.70;97.30;;;;;;2603364;54;20031;31
2022/08/16 16:29:55;;;;;;;8.90;4.60;;;30.70;97.00;;;;;;2621539;46;20089;31
2022/08/16 16:32:36;;;;;;;9.47;4.73;;;30.70;97.10;;;;;;2603333;54;20029;31
2022/08/16 16:35:13;;;;;;;6.07;4.65;;;30.70;97.90;;;;;;2603733;54;20274;31
2022/08/16 16:37:55;;;;;;;6.35;4.50;;;30.70;97.10;;;;;;2603245;54;20116;31
2022/08/16 16:40:31;;;;;;;5.68;4.53;;;30.60;97.90;;;;;;2603588;54;20053;31
2022/08/16 16:43:08;;;;;;;4.85;4.20;;;30.50;97.60;;;;;;2621840;47;20031;31
2022/08/16 16:45:47;;;;;;;6.03;4.60;;;30.50;98.00;;;;;;2603186;54;20026;31
2022/08/16 16:48:24;;;;;;;6.67;5.03;;;30.50;97.60;;;;;;2621697;47;20037;31
2022/08/16 16:51:08;;;;;;;4.80;4.20;;;30.40;98.00;;;;;;2603435;54;20246;31
2022/08/16 16:53:48;;;;;;;4.25;3.85;;;30.40;97.80;;;;;;2603391;54;20031;31
2022/08/16 16:56:32;;;;;;;9.00;4.33;;;30.40;97.30;;;;;;2603459;54;20192;31
2022/08/16 16:59:08;;;;;;;5.00;3.95;;;30.30;97.40;;;;;;2603326;54;20033;31
2022/08/16 17:01:44;;;;;;;6.38;4.32;;;30.30;98.00;;;;;;2603144;54;20030;31
2022/08/16 17:04:40;;;;;;;4.38;3.97;;;30.20;97.40;;;;;;2603112;54;20948;31
2022/08/16 17:07:18;;;;;;;4.90;4.38;;;30.10;97.80;;;;;;2621743;47;20030;31
2022/08/16 17:10:00;;;;;;;10.23;4.87;;;30.00;97.50;;;;;;2603748;54;20039;31
2022/08/16 17:12:36;;;;;;;4.65;4.22;;;30.00;98.40;;;;;;2622210;46;20027;31
2022/08/16 17:15:20;;;;;;;5.97;4.90;;;30.00;98.30;;;;;;2603956;54;20033;31
2022/08/16 17:17:57;;;;;;;6.93;5.37;;;29.90;98.20;;;;;;2603970;54;20930;31
2022/08/16 17:20:38;;;;;;;6.05;5.25;;;29.80;98.60;;;;;;2604112;54;21168;31
2022/08/16 17:23:13;;;;;;;7.05;4.90;;;29.70;98.80;;;;;;2622417;46;20038;31
2022/08/16 17:25:59;;;;;;;10.53;5.07;;;29.60;98.30;;;;;;2603775;54;20109;31
2022/08/16 17:28:34;;;;;;;13.52;5.13;;;29.50;99.00;;;;;;2603963;54;20148;31
2022/08/16 17:31:29;;;;;;;8.50;5.00;;;29.40;99.60;;;;;;2604073;54;20030;31
2022/08/16 17:34:24;;;;;;;5.75;3.97;;;29.30;99.90;;;;;;2603919;54;20048;31
2022/08/16 17:37:03;;;;;;;8.32;4.38;;;29.20;99.90;;;;;;2603887;54;20027;31
2022/08/16 17:39:42;;;;;;;6.28;3.92;;;29.10;99.90;;;;;;2604055;54;20037;31
2022/08/16 17:42:35;;;;;;;6.15;4.75;;;29.20;99.90;;;;;;2603760;54;20042;31
2022/08/16 17:45:12;;;;;;;7.93;5.00;;;29.00;99.90;;;;;;2622541;46;20049;31
2022/08/16 17:47:47;;;;;;;4.55;4.15;;;29.00;99.90;;;;;;2603759;54;20029;31
2022/08/16 17:50:23;;;;;;;;;;;28.90;99.90;;;;;;2603780;54;20027;31
2022/08/16 17:52:57;;;;;;;6.55;4.60;;;28.80;99.90;;;;;;2702424;39;20930;31
2022/08/16 17:55:34;;;;;;;7.05;5.22;;;28.70;99.90;;;;;;2604086;54;20038;31
2022/08/16 17:58:14;;;;;;;5.30;4.60;;;28.70;99.90;;;;;;2603912;54;20928;31
2022/08/16 18:01:00;;;;;;;7.90;5.22;;;28.60;99.90;;;;;;2603757;54;20933;31
2022/08/16 18:03:35;;;;;;;10.00;6.05;;;28.50;99.90;;;;;;2702736;39;22284;31
2022/08/16 18:06:33;;;;;;;9.70;6.53;;;28.40;99.90;;;;;;2622310;46;20030;31
2022/08/16 18:09:07;;;;;;;11.65;6.05;;;28.30;99.90;;;;;;2603782;54;20862;31
2022/08/16 18:11:44;;;;;;;10.60;7.80;;;28.10;99.90;;;;;;2603837;54;20835;31
2022/08/16 18:14:27;;;;;;;;;;;28.00;99.90;;;;;;2604261;54;20048;31
2022/08/16 18:17:24;;;;;;;12.18;7.25;;;27.90;99.90;;;;;;2603964;54;19934;31
2022/08/16 18:19:59;;;;;;;10.63;7.60;;;27.70;99.90;;;;;;2603673;54;20027;31
2022/08/16 18:22:32;;;;;;;11.07;7.00;;;27.60;99.90;;;;;;2622267;47;20254;31
2022/08/16 18:25:15;;;;;;;9.80;7.60;;;27.50;99.90;;;;;;2622169;46;20034;31
2022/08/16 18:27:49;;;;;;;9.05;6.85;;;27.40;99.90;;;;;;2603875;54;21089;31
2022/08/16 18:30:27;;;;;;;9.55;7.40;;;27.20;99.90;;;;;;2603617;54;20022;31
2022/08/16 18:33:03;;;;;;;13.05;8.25;;;27.20;99.90;;;;;;2603940;54;20030;31
2022/08/16 18:35:39;;;;;;;10.55;7.93;;;27.10;99.90;;;;;;2604067;54;20030;31
2022/08/16 18:38:15;;;;;;;9.50;8.00;;;27.10;99.90;;;;;;2603839;54;20026;31
2022/08/16 18:40:49;;;;;;;;;;;27.00;99.90;;;;;;2604085;54;21907;31
2022/08/16 18:43:25;;;;;;;14.65;8.30;;;26.90;99.90;;;;;;2622176;46;20769;31
2022/08/16 18:46:24;;;;;;;11.23;8.10;;;26.80;99.90;;;;;;2603890;54;20033;31
2022/08/16 18:49:00;;;;;;;15.07;7.97;;;26.70;99.90;;;;;;2603332;54;20049;31
2022/08/16 18:51:36;;;;;;;14.43;8.17;;;26.70;99.90;;;;;;2603693;54;20030;31
2022/08/16 18:54:11;;;;;;;12.80;7.70;;;26.60;99.90;;;;;;2603680;54;20053;31
2022/08/16 18:56:45;;;;;;;15.45;8.80;;;26.50;99.90;;;;;;2603741;54;20928;31
2022/08/16 18:59:31;;;;;;;12.40;7.88;;;26.40;99.90;;;;;;2603793;54;20061;31
2022/08/16 19:02:10;;;;;;;11.85;7.38;;;26.40;99.90;;;;;;2604091;54;20026;31
2022/08/16 19:05:05;;;;;;;15.70;7.55;;;26.30;99.90;;;;;;2603874;54;20038;31
2022/08/16 19:07:40;;;;;;;12.38;8.15;;;26.20;99.90;;;;;;2603665;54;20026;31
2022/08/16 19:10:15;;;;;;;;;;;26.10;99.90;;;;;;2604057;54;20038;31
2022/08/16 19:12:52;;;;;;;15.90;8.48;;;26.10;99.90;;;;;;2622361;46;20863;31
2022/08/16 19:15:29;;;;;;;15.70;8.20;;;26.00;99.90;;;;;;2603603;54;20030;31
2022/08/16 19:18:08;;;;;;;11.20;8.37;;;25.90;99.90;;;;;;2621923;46;20116;31
2022/08/16 19:20:43;;;;;;;12.75;8.05;;;25.90;99.90;;;;;;2603505;54;20104;31
2022/08/16 19:23:19;;;;;;;16.33;8.60;;;25.80;99.90;;;;;;2603571;54;20917;31
2022/08/16 19:25:56;;;;;;;14.30;7.55;;;25.70;99.90;;;;;;2603836;54;20848;31
2022/08/16 19:28:32;;;;;;;12.13;8.15;;;25.70;99.90;;;;;;2702317;39;21031;31
2022/08/16 19:31:28;;;;;;;11.63;8.68;;;25.60;99.90;;;;;;2603415;54;20031;31
2022/08/16 19:34:06;;;;;;;15.45;8.27;;;25.60;99.90;;;;;;2603416;54;20063;31
2022/08/16 19:36:43;;;;;;;9.80;8.45;;;25.40;99.90;;;;;;2603517;54;20029;31
2022/08/16 19:39:18;;;;;;;12.82;8.07;;;25.30;99.90;;;;;;2603518;54;20029;31
2022/08/16 19:41:53;;;;;;;11.00;7.60;;;25.30;99.90;;;;;;2622247;46;20896;31
2022/08/16 19:44:29;;;;;;;9.73;8.48;;;25.40;99.90;;;;;;2603505;54;21830;31
2022/08/16 19:47:04;;;;;;;11.60;7.43;;;25.30;99.90;;;;;;2603543;54;20036;31
2022/08/16 19:49:42;;;;;;;10.43;6.93;;;25.20;99.90;;;;;;2603294;54;20038;31
2022/08/16 19:52:18;;;;;;;13.48;7.03;;;25.20;99.90;;;;;;2603512;54;21846;31
2022/08/16 19:54:54;;;;;;;9.02;7.68;;;25.10;99.90;;;;;;2603383;54;20177;31
2022/08/16 19:57:30;;;;;;;11.37;8.10;;;25.10;99.90;;;;;;2603310;54;20026;31
2022/08/16 20:00:11;;;;;;;10.93;7.57;;;25.10;99.90;;;;;;2603588;54;20065;31
2022/08/16 20:02:50;;;;;;;12.23;7.60;;;25.00;99.90;;;;;;2621546;46;20030;31
2022/08/16 20:05:30;;;;;;;10.73;8.02;;;24.90;99.90;;;;;;2603385;54;20877;31
2022/08/16 20:08:06;;;;;;;9.13;7.27;;;24.90;99.90;;;;;;2603627;54;20034;31
2022/08/16 20:10:43;;;;;;;9.48;7.55;;;24.80;99.90;;;;;;2603240;54;20062;31
2022/08/16 20:13:20;;;;;;;9.53;7.30;;;24.70;99.90;;;;;;2622231;46;20026;31
2022/08/16 20:15:55;;;;;;;8.70;7.60;;;24.60;99.90;;;;;;2603655;54;20097;31
2022/08/16 20:18:29;;;;;;;8.57;7.68;;;24.60;99.90;;;;;;2603608;54;20891;31
2022/08/16 20:21:06;;;;;;;8.73;7.00;;;24.50;99.90;;;;;;2603569;54;20026;31
2022/08/16 20:23:43;;;;;;;10.80;7.00;;;24.40;99.90;;;;;;2603432;54;19935;31
2022/08/16 20:26:18;;;;;;;7.78;7.00;;;24.40;99.90;;;;;;2701677;39;21549;31
2022/08/16 20:28:52;;;;;;;10.00;7.10;;;24.30;99.90;;;;;;2622162;46;20809;31
2022/08/16 20:31:30;;;;;;;13.35;8.07;;;24.30;99.90;;;;;;2603253;54;20027;31
2022/08/16 20:34:05;;;;;;;12.88;7.93;;;24.20;99.90;;;;;;2603422;54;20038;31
2022/08/16 20:36:43;;;;;;;;;;;24.10;99.90;;;;;;2603573;54;20103;31
2022/08/16 20:39:22;;;;;;;15.15;9.05;;;24.10;99.90;;;;;;2621504;47;20771;31
2022/08/16 20:41:58;;;;;;;13.70;7.50;;;24.00;99.90;;;;;;2603309;54;20033;31
2022/08/16 20:44:36;;;;;;;9.15;7.15;;;24.00;99.90;;;;;;2603789;54;20038;31
2022/08/16 20:47:12;;;;;;;16.38;8.93;;;23.90;99.90;;;;;;2603947;54;20026;31
2022/08/16 20:49:49;;;;;;;9.65;8.63;;;23.90;99.90;;;;;;2603983;54;20897;31